Time;durP1;ratioP1;P1;durP2;ratioP2;P2;SDS_P1;SDS_P2;PMS_P1;PMS_P2;Temp;Humidity;BMP_temperature;BMP_pressure;BME280_temperature;BME280_humidity;BME280_pressure;Samples;Min_cycle;Max_cycle;Signal;HPM_P1;HPM_P2
2022/01/07 00:00:16;;;;;;;86.68;44.75;;;;;;;;;;5032500;28;20091;-67
2022/01/07 00:02:46;;;;;;;76.50;37.65;;;;;;;;;;5032113;28;20049;-67
2022/01/07 00:05:13;;;;;;;88.10;42.28;;;;;;;;;;5032249;28;20038;-67
2022/01/07 00:07:40;;;;;;;71.53;39.17;;;;;;;;;;5030902;28;20061;-67
2022/01/07 00:10:09;;;;;;;65.15;34.53;;;;;;;;;;5031166;28;20091;-68
2022/01/07 00:12:35;;;;;;;57.78;32.90;;;;;;;;;;5031964;28;20029;-68
2022/01/07 00:15:02;;;;;;;68.82;33.30;;;;;;;;;;5032384;28;20037;-68
2022/01/07 00:17:28;;;;;;;63.25;35.03;;;;;;;;;;5032067;28;20036;-67
2022/01/07 00:19:54;;;;;;;56.42;29.20;;;;;;;;;;5032453;28;20108;-68
2022/01/07 00:22:20;;;;;;;59.08;30.98;;;;;;;;;;5032139;28;20060;-68
2022/01/07 00:24:46;;;;;;;59.38;30.95;;;;;;;;;;5032506;28;20040;-67
2022/01/07 00:27:11;;;;;;;42.45;24.00;;;;;;;;;;5032049;28;20025;-68
2022/01/07 00:29:37;;;;;;;48.50;25.42;;;;;;;;;;5030861;28;20076;-66
2022/01/07 00:32:03;;;;;;;49.35;26.63;;;;;;;;;;5032036;28;20029;-67
2022/01/07 00:34:29;;;;;;;52.15;26.52;;;;;;;;;;5032111;28;20716;-68
2022/01/07 00:36:55;;;;;;;50.60;24.95;;;;;;;;;;5031674;28;20481;-67
2022/01/07 00:39:21;;;;;;;45.30;23.42;;;;;;;;;;5031887;28;20550;-67
2022/01/07 00:41:47;;;;;;;55.88;25.33;;;;;;;;;;5032128;28;20021;-68
2022/01/07 00:44:13;;;;;;;53.38;24.92;;;;;;;;;;5032127;28;20033;-68
2022/01/07 00:46:39;;;;;;;52.85;23.80;;;;;;;;;;5034204;28;20083;-68
2022/01/07 00:49:05;;;;;;;43.70;23.08;;;;;;;;;;5034120;28;20037;-67
2022/01/07 00:51:31;;;;;;;43.45;24.02;;;;;;;;;;5031540;28;20029;-67
2022/01/07 00:53:57;;;;;;;40.15;22.58;;;;;;;;;;5031902;28;20030;-67
2022/01/07 00:56:22;;;;;;;42.58;23.38;;;;;;;;;;5031389;28;20026;-67
2022/01/07 00:58:48;;;;;;;45.33;24.65;;;;;;;;;;5036216;28;20060;-67
2022/01/07 01:01:15;;;;;;;42.47;23.38;;;;;;;;;;5032148;28;20025;-67
2022/01/07 01:03:41;;;;;;;54.58;28.80;;;;;;;;;;5031280;28;20060;-67
2022/01/07 01:06:07;;;;;;;64.70;36.20;;;;;;;;;;5029990;28;20519;-67
2022/01/07 01:08:32;;;;;;;73.88;39.67;;;;;;;;;;5030797;28;20037;-67
2022/01/07 01:10:58;;;;;;;67.18;36.97;;;;;;;;;;5031685;28;20036;-68
2022/01/07 01:13:24;;;;;;;56.20;30.83;;;;;;;;;;5031972;28;20041;-67
2022/01/07 01:15:50;;;;;;;53.30;31.27;;;;;;;;;;5031594;28;20412;-67
2022/01/07 01:18:16;;;;;;;77.97;42.25;;;;;;;;;;5031744;28;20510;-66
2022/01/07 01:20:42;;;;;;;118.15;63.35;;;;;;;;;;5031670;28;20018;-69
2022/01/07 01:23:08;;;;;;;131.82;69.97;;;;;;;;;;5031516;28;20492;-68
2022/01/07 01:25:34;;;;;;;94.85;50.03;;;;;;;;;;5031369;28;20048;-68
2022/01/07 01:28:00;;;;;;;99.97;53.70;;;;;;;;;;5031502;28;20043;-67
2022/01/07 01:30:32;;;;;;;104.68;53.33;;;;;;;;;;5031043;28;20120;-67
2022/01/07 01:32:58;;;;;;;107.13;53.63;;;;;;;;;;5031513;28;20492;-67
2022/01/07 01:35:24;;;;;;;96.72;49.38;;;;;;;;;;5031500;28;20061;-67
2022/01/07 01:37:50;;;;;;;93.90;48.45;;;;;;;;;;5031630;28;20037;-68
2022/01/07 01:40:18;;;;;;;86.97;44.92;;;;;;;;;;5035149;28;20046;-67
2022/01/07 01:42:45;;;;;;;106.53;54.75;;;;;;;;;;5031149;28;20489;-67
2022/01/07 01:45:12;;;;;;;106.30;53.83;;;;;;;;;;5031269;28;20365;-68
2022/01/07 01:47:37;;;;;;;103.53;51.30;;;;;;;;;;5035176;28;20179;-68
2022/01/07 01:50:05;;;;;;;101.72;52.75;;;;;;;;;;5031019;28;20108;-68
2022/01/07 01:52:31;;;;;;;99.97;50.92;;;;;;;;;;5031079;28;20519;-67
2022/01/07 01:54:56;;;;;;;90.50;49.13;;;;;;;;;;5031075;28;20053;-68
2022/01/07 01:57:22;;;;;;;79.85;44.28;;;;;;;;;;5031084;28;20029;-68
2022/01/07 01:59:49;;;;;;;79.35;43.13;;;;;;;;;;5031204;28;20495;-66
2022/01/07 02:02:14;;;;;;;70.85;41.35;;;;;;;;;;5031060;28;20059;-67
2022/01/07 02:04:40;;;;;;;71.72;38.97;;;;;;;;;;5031546;28;20030;-68
2022/01/07 02:07:08;;;;;;;65.97;37.53;;;;;;;;;;5031541;28;20037;-69
2022/01/07 02:09:36;;;;;;;60.40;33.63;;;;;;;;;;5030684;28;20026;-67
2022/01/07 02:12:04;;;;;;;69.38;38.05;;;;;;;;;;5030340;28;20063;-68
2022/01/07 02:14:30;;;;;;;78.63;41.65;;;;;;;;;;5030440;28;20353;-68
2022/01/07 02:17:06;;;;;;;67.15;36.42;;;;;;;;;;5030556;28;20043;-70
2022/01/07 02:19:32;;;;;;;67.85;38.10;;;;;;;;;;5030897;28;20030;-68
2022/01/07 02:21:58;;;;;;;71.68;39.55;;;;;;;;;;5034673;28;20079;-68
2022/01/07 02:24:24;;;;;;;73.35;39.13;;;;;;;;;;5034467;28;20084;-68
2022/01/07 02:26:50;;;;;;;76.30;40.65;;;;;;;;;;5034583;28;20403;-68
2022/01/07 02:29:15;;;;;;;82.43;42.10;;;;;;;;;;5034163;28;20037;-70
2022/01/07 02:31:41;;;;;;;82.97;43.35;;;;;;;;;;5034498;28;20041;-68
2022/01/07 02:34:07;;;;;;;97.47;45.50;;;;;;;;;;5034567;28;20273;-69
2022/01/07 02:36:32;;;;;;;83.38;42.28;;;;;;;;;;5038445;28;20077;-66
2022/01/07 02:38:58;;;;;;;49.72;27.17;;;;;;;;;;5034066;28;20033;-67
2022/01/07 02:41:24;;;;;;;72.75;35.95;;;;;;;;;;5033776;28;20496;-66
2022/01/07 02:43:50;;;;;;;61.22;34.60;;;;;;;;;;5034183;28;20037;-66
2022/01/07 02:46:16;;;;;;;58.25;32.00;;;;;;;;;;5034135;28;20028;-67
2022/01/07 02:48:41;;;;;;;58.95;30.60;;;;;;;;;;5032659;28;20120;-67
2022/01/07 02:51:07;;;;;;;48.15;27.90;;;;;;;;;;5033904;28;20182;-66
2022/01/07 02:53:33;;;;;;;42.05;23.55;;;;;;;;;;5033979;28;20037;-69
2022/01/07 02:55:59;;;;;;;38.33;23.48;;;;;;;;;;5032687;28;20022;-68
2022/01/07 02:58:25;;;;;;;33.60;20.17;;;;;;;;;;5033736;28;20041;-66
2022/01/07 03:00:50;;;;;;;36.60;21.65;;;;;;;;;;5033519;28;20021;-70
2022/01/07 03:03:16;;;;;;;37.63;20.35;;;;;;;;;;5051168;28;20048;-68
2022/01/07 03:05:42;;;;;;;37.97;21.67;;;;;;;;;;5034411;28;20018;-67
2022/01/07 03:08:10;;;;;;;34.38;19.95;;;;;;;;;;5033496;28;20108;-68
2022/01/07 03:10:35;;;;;;;32.38;17.50;;;;;;;;;;5033220;28;20032;-68
2022/01/07 03:13:03;;;;;;;37.95;20.48;;;;;;;;;;5033748;28;20041;-68
2022/01/07 03:15:30;;;;;;;35.55;21.85;;;;;;;;;;5033775;28;20104;-67
2022/01/07 03:17:56;;;;;;;36.92;21.48;;;;;;;;;;5033617;28;20117;-68
2022/01/07 03:20:22;;;;;;;37.80;22.63;;;;;;;;;;5032120;28;20101;-67
2022/01/07 03:22:49;;;;;;;47.42;28.15;;;;;;;;;;5038977;28;20037;-69
2022/01/07 03:25:16;;;;;;;51.80;30.42;;;;;;;;;;5033304;28;20029;-68
2022/01/07 03:27:42;;;;;;;44.97;26.02;;;;;;;;;;5033232;28;20500;-68
2022/01/07 03:30:10;;;;;;;56.53;30.48;;;;;;;;;;5032998;28;20049;-67
2022/01/07 03:32:36;;;;;;;43.63;24.08;;;;;;;;;;5032698;28;20048;-67
2022/01/07 03:35:03;;;;;;;41.10;23.27;;;;;;;;;;5033328;28;20121;-68
2022/01/07 03:37:29;;;;;;;42.97;20.30;;;;;;;;;;5035622;28;20025;-68
2022/01/07 03:39:54;;;;;;;31.52;17.95;;;;;;;;;;5052822;28;20029;-69
2022/01/07 03:42:20;;;;;;;34.85;18.63;;;;;;;;;;5052928;28;20067;-68
2022/01/07 03:44:46;;;;;;;35.92;18.40;;;;;;;;;;5052661;28;20079;-70
2022/01/07 03:47:12;;;;;;;32.35;17.90;;;;;;;;;;5052911;28;20053;-68
2022/01/07 03:49:38;;;;;;;30.17;15.48;;;;;;;;;;5053088;28;20029;-70
2022/01/07 03:52:04;;;;;;;29.55;15.18;;;;;;;;;;5052280;28;20045;-68
2022/01/07 03:54:30;;;;;;;28.27;15.10;;;;;;;;;;5052593;28;20092;-68
2022/01/07 03:56:56;;;;;;;27.23;15.43;;;;;;;;;;5052433;28;20033;-68
2022/01/07 03:59:21;;;;;;;34.55;15.68;;;;;;;;;;5052577;28;20035;-66
2022/01/07 04:01:47;;;;;;;26.30;15.35;;;;;;;;;;5051540;28;20025;-67
2022/01/07 04:04:13;;;;;;;29.08;15.38;;;;;;;;;;5046514;28;20196;-68
2022/01/07 04:06:39;;;;;;;25.17;14.23;;;;;;;;;;5032431;28;20045;-67
2022/01/07 04:09:05;;;;;;;36.53;18.20;;;;;;;;;;5032533;28;20029;-67
2022/01/07 04:11:31;;;;;;;38.33;21.00;;;;;;;;;;5032630;28;20234;-67
2022/01/07 04:13:57;;;;;;;40.15;22.80;;;;;;;;;;5032255;28;20104;-68
2022/01/07 04:16:23;;;;;;;34.47;20.73;;;;;;;;;;5032170;28;20029;-67
2022/01/07 04:18:48;;;;;;;29.08;15.68;;;;;;;;;;5032212;28;20373;-68
2022/01/07 04:21:14;;;;;;;30.95;16.20;;;;;;;;;;5032524;28;20112;-67
2022/01/07 04:23:40;;;;;;;29.63;17.30;;;;;;;;;;5032780;28;20559;-66
2022/01/07 04:26:06;;;;;;;28.23;16.70;;;;;;;;;;5032775;28;20395;-69
2022/01/07 04:28:32;;;;;;;38.17;15.93;;;;;;;;;;5031897;28;20060;-67
2022/01/07 04:30:58;;;;;;;27.58;15.27;;;;;;;;;;5031621;28;20507;-67
2022/01/07 04:33:29;;;;;;;29.77;16.38;;;;;;;;;;5032073;28;20069;-66
2022/01/07 04:35:55;;;;;;;26.95;14.75;;;;;;;;;;5031250;28;20087;-67
2022/01/07 04:38:22;;;;;;;25.27;14.73;;;;;;;;;;5031357;28;20025;-68
2022/01/07 04:40:48;;;;;;;29.75;15.40;;;;;;;;;;5049009;28;20141;-67
2022/01/07 04:43:14;;;;;;;29.52;15.65;;;;;;;;;;5049135;28;20476;-67
2022/01/07 04:45:40;;;;;;;27.67;14.60;;;;;;;;;;5046347;28;20033;-67
2022/01/07 04:48:06;;;;;;;35.45;15.48;;;;;;;;;;5045823;28;20423;-67
2022/01/07 04:50:33;;;;;;;25.58;15.52;;;;;;;;;;5031391;28;20079;-67
2022/01/07 04:52:59;;;;;;;25.10;15.10;;;;;;;;;;5049824;28;20381;-66
2022/01/07 04:55:29;;;;;;;32.50;16.75;;;;;;;;;;5031718;28;20124;-67
2022/01/07 04:57:56;;;;;;;39.22;16.48;;;;;;;;;;5031214;28;20619;-67
2022/01/07 05:00:23;;;;;;;32.58;16.58;;;;;;;;;;5031486;28;20035;-70
2022/01/07 05:02:50;;;;;;;34.92;18.85;;;;;;;;;;5032738;28;20563;-72
2022/01/07 05:05:16;;;;;;;30.00;16.08;;;;;;;;;;5032922;28;20030;-72
2022/01/07 05:07:42;;;;;;;29.08;16.75;;;;;;;;;;5031357;28;20034;-73
2022/01/07 05:10:10;;;;;;;34.58;18.00;;;;;;;;;;5030140;28;20033;-70
2022/01/07 05:12:37;;;;;;;28.40;16.77;;;;;;;;;;5031715;28;20029;-75
2022/01/07 05:15:05;;;;;;;44.58;18.15;;;;;;;;;;5030890;28;20117;-74
2022/01/07 05:17:31;;;;;;;40.05;19.23;;;;;;;;;;5030270;28;20052;-75
2022/01/07 05:19:57;;;;;;;41.20;17.77;;;;;;;;;;5029069;28;20120;-72
2022/01/07 05:22:23;;;;;;;43.35;17.38;;;;;;;;;;5031165;28;20129;-72
2022/01/07 05:24:49;;;;;;;38.00;18.17;;;;;;;;;;5031687;28;20388;-73
2022/01/07 05:27:16;;;;;;;49.95;23.83;;;;;;;;;;5033018;28;20026;-71
2022/01/07 05:29:42;;;;;;;45.38;24.17;;;;;;;;;;5051377;28;20057;-75
2022/01/07 05:32:08;;;;;;;47.65;22.30;;;;;;;;;;5051933;28;20076;-69
2022/01/07 05:34:34;;;;;;;40.95;20.48;;;;;;;;;;5051098;28;20029;-74
2022/01/07 05:37:00;;;;;;;48.85;21.38;;;;;;;;;;5052284;28;20037;-76
2022/01/07 05:39:26;;;;;;;48.05;24.42;;;;;;;;;;5052153;28;20028;-73
2022/01/07 05:41:52;;;;;;;52.72;23.80;;;;;;;;;;5047811;28;20042;-71
2022/01/07 05:44:18;;;;;;;46.85;22.15;;;;;;;;;;5032253;28;20021;-71
2022/01/07 05:46:44;;;;;;;44.45;23.15;;;;;;;;;;5031654;28;20037;-70
2022/01/07 05:49:10;;;;;;;39.00;21.58;;;;;;;;;;5031088;28;20030;-70
2022/01/07 05:51:35;;;;;;;47.17;21.77;;;;;;;;;;5031869;28;20077;-71
2022/01/07 05:54:01;;;;;;;46.42;23.13;;;;;;;;;;5031951;28;20026;-71
2022/01/07 05:56:27;;;;;;;41.78;22.27;;;;;;;;;;5033768;28;20037;-70
2022/01/07 05:58:53;;;;;;;48.97;23.95;;;;;;;;;;5035745;28;20030;-71
2022/01/07 06:01:19;;;;;;;47.78;23.77;;;;;;;;;;5035978;28;20036;-71
2022/01/07 06:03:45;;;;;;;36.65;20.70;;;;;;;;;;5035879;28;20037;-69
2022/01/07 06:06:11;;;;;;;42.20;19.75;;;;;;;;;;5035739;28;20041;-70
2022/01/07 06:08:37;;;;;;;31.90;16.98;;;;;;;;;;5035031;28;20032;-69
2022/01/07 06:11:03;;;;;;;29.30;15.43;;;;;;;;;;5035485;28;20037;-70
2022/01/07 06:13:29;;;;;;;39.03;17.98;;;;;;;;;;5035382;28;20121;-70
2022/01/07 06:15:55;;;;;;;42.50;20.60;;;;;;;;;;5035541;28;20037;-70
2022/01/07 06:18:21;;;;;;;32.22;19.75;;;;;;;;;;5034874;28;20495;-70
2022/01/07 06:20:47;;;;;;;37.05;21.48;;;;;;;;;;5033706;28;20388;-71
2022/01/07 06:23:13;;;;;;;58.92;25.50;;;;;;;;;;5035058;28;20026;-70
2022/01/07 06:25:39;;;;;;;64.10;28.42;;;;;;;;;;5035042;28;20164;-70
2022/01/07 06:28:04;;;;;;;51.80;27.02;;;;;;;;;;5035397;28;20104;-70
2022/01/07 06:30:30;;;;;;;45.33;25.42;;;;;;;;;;5035031;28;20042;-70
2022/01/07 06:32:56;;;;;;;48.47;25.90;;;;;;;;;;5034997;28;20123;-70
2022/01/07 06:35:22;;;;;;;46.72;24.45;;;;;;;;;;5034840;28;20026;-69
2022/01/07 06:37:48;;;;;;;49.47;22.15;;;;;;;;;;5034610;28;20108;-73
2022/01/07 06:40:14;;;;;;;44.15;20.30;;;;;;;;;;5034495;28;20052;-70
2022/01/07 06:42:40;;;;;;;34.30;17.95;;;;;;;;;;5045946;28;20021;-70
2022/01/07 06:45:07;;;;;;;34.03;18.27;;;;;;;;;;5054092;28;20045;-70
2022/01/07 06:47:33;;;;;;;31.33;16.27;;;;;;;;;;5054074;28;20028;-70
2022/01/07 06:49:59;;;;;;;28.02;16.85;;;;;;;;;;5054072;28;20052;-71
2022/01/07 06:52:25;;;;;;;34.35;17.65;;;;;;;;;;5053975;28;20045;-69
2022/01/07 06:54:50;;;;;;;40.13;17.92;;;;;;;;;;5053990;28;20075;-70
2022/01/07 06:57:17;;;;;;;34.45;17.33;;;;;;;;;;5052698;28;20105;-70
2022/01/07 06:59:45;;;;;;;28.27;16.17;;;;;;;;;;5054149;28;20411;-69
2022/01/07 07:02:10;;;;;;;34.67;17.25;;;;;;;;;;5053981;28;20060;-72
2022/01/07 07:04:36;;;;;;;40.17;19.95;;;;;;;;;;5053263;28;20029;-69
2022/01/07 07:07:02;;;;;;;34.88;19.30;;;;;;;;;;5052259;28;20052;-70
2022/01/07 07:09:28;;;;;;;36.67;18.88;;;;;;;;;;5053655;28;20052;-75
2022/01/07 07:11:54;;;;;;;37.30;19.60;;;;;;;;;;5052809;28;20442;-71
2022/01/07 07:14:20;;;;;;;34.92;18.33;;;;;;;;;;5053757;28;20064;-72
2022/01/07 07:16:46;;;;;;;33.85;17.25;;;;;;;;;;5053568;28;20480;-72
2022/01/07 07:19:12;;;;;;;30.13;16.77;;;;;;;;;;5051476;28;20487;-71
2022/01/07 07:21:38;;;;;;;30.13;16.33;;;;;;;;;;5043026;28;20024;-74
2022/01/07 07:24:04;;;;;;;26.33;14.98;;;;;;;;;;5052634;28;20086;-74
2022/01/07 07:26:31;;;;;;;24.08;14.35;;;;;;;;;;5051909;28;20158;-72
2022/01/07 07:28:56;;;;;;;24.35;14.88;;;;;;;;;;5052149;28;20040;-71
2022/01/07 07:31:22;;;;;;;26.85;16.40;;;;;;;;;;5052523;28;20041;-70
2022/01/07 07:36:30;;;;;;;31.52;17.27;;;;;;;;;;5053053;28;20013;-71
2022/01/07 07:39:01;;;;;;;28.45;17.70;;;;;;;;;;5053437;28;20052;-70
2022/01/07 07:41:28;;;;;;;42.80;17.15;;;;;;;;;;5053568;28;20459;-70
2022/01/07 07:43:56;;;;;;;28.85;16.63;;;;;;;;;;5050133;28;20025;-71
2022/01/07 07:46:22;;;;;;;27.48;15.45;;;;;;;;;;5052844;28;20025;-72
2022/01/07 07:48:48;;;;;;;28.85;16.33;;;;;;;;;;5053319;28;20025;-70
2022/01/07 07:51:15;;;;;;;29.52;17.00;;;;;;;;;;5052824;28;20135;-70
2022/01/07 07:53:41;;;;;;;31.05;15.95;;;;;;;;;;5053313;28;20052;-69
2022/01/07 07:56:10;;;;;;;28.85;15.13;;;;;;;;;;5053014;28;20037;-67
2022/01/07 07:58:36;;;;;;;30.70;15.60;;;;;;;;;;5034631;28;20022;-69
2022/01/07 08:01:02;;;;;;;30.67;16.10;;;;;;;;;;5033066;28;20453;-69
2022/01/07 08:03:28;;;;;;;30.63;16.42;;;;;;;;;;5032346;28;20030;-69
2022/01/07 08:05:54;;;;;;;30.58;16.85;;;;;;;;;;5033140;28;20052;-71
2022/01/07 08:08:20;;;;;;;29.35;16.77;;;;;;;;;;5034867;28;20025;-69
2022/01/07 08:10:52;;;;;;;32.33;17.23;;;;;;;;;;5052615;28;20040;-68
2022/01/07 08:13:28;;;;;;;26.92;15.43;;;;;;;;;;5043384;28;20043;-70
2022/01/07 08:15:58;;;;;;;26.85;15.40;;;;;;;;;;5050367;28;20091;-71
2022/01/07 08:18:33;;;;;;;30.35;14.90;;;;;;;;;;5052594;28;20427;-71
2022/01/07 08:21:05;;;;;;;23.52;14.15;;;;;;;;;;5052060;28;20537;-71
2022/01/07 08:23:33;;;;;;;25.08;12.88;;;;;;;;;;5052541;28;20147;-70
2022/01/07 08:26:00;;;;;;;28.67;14.88;;;;;;;;;;5052385;28;20025;-71
2022/01/07 08:28:31;;;;;;;20.63;13.32;;;;;;;;;;5052220;28;20090;-71
2022/01/07 08:31:13;;;;;;;22.73;14.48;;;;;;;;;;5052285;28;20037;-70
2022/01/07 08:36:27;;;;;;;24.90;14.10;;;;;;;;;;5052102;28;20040;-70
2022/01/07 08:38:53;;;;;;;24.25;15.48;;;;;;;;;;5052216;28;20028;-72
2022/01/07 08:41:22;;;;;;;28.25;16.60;;;;;;;;;;5052108;28;20041;-70
2022/01/07 08:43:48;;;;;;;27.52;17.30;;;;;;;;;;5051644;28;20476;-71
2022/01/07 08:46:15;;;;;;;27.33;16.25;;;;;;;;;;5052040;28;20032;-70
2022/01/07 08:48:41;;;;;;;27.92;14.50;;;;;;;;;;5051617;28;20166;-71
2022/01/07 08:51:07;;;;;;;26.48;15.77;;;;;;;;;;5051797;28;20112;-69
2022/01/07 08:53:34;;;;;;;24.83;14.73;;;;;;;;;;5052024;28;20048;-71
2022/01/07 08:56:00;;;;;;;27.17;15.32;;;;;;;;;;5050569;28;20171;-72
2022/01/07 08:58:26;;;;;;;30.98;15.27;;;;;;;;;;5051682;28;20112;-70
2022/01/07 09:00:51;;;;;;;28.33;15.57;;;;;;;;;;5052044;28;20032;-70
2022/01/07 09:03:18;;;;;;;22.35;13.65;;;;;;;;;;5051944;28;20025;-71
2022/01/07 09:05:44;;;;;;;32.15;14.55;;;;;;;;;;5051344;28;20044;-71
2022/01/07 09:08:11;;;;;;;28.27;14.43;;;;;;;;;;5049855;28;20021;-71
2022/01/07 09:10:38;;;;;;;27.15;14.05;;;;;;;;;;5051661;28;20123;-70
2022/01/07 09:13:04;;;;;;;24.83;14.38;;;;;;;;;;5051381;28;20039;-74
2022/01/07 09:15:31;;;;;;;27.35;15.10;;;;;;;;;;5051486;28;20074;-72
2022/01/07 09:17:57;;;;;;;29.38;14.60;;;;;;;;;;5051479;28;20021;-72
2022/01/07 09:20:23;;;;;;;27.25;15.55;;;;;;;;;;5051318;28;20043;-70
2022/01/07 09:22:49;;;;;;;33.05;15.77;;;;;;;;;;5051378;28;20416;-71
2022/01/07 09:25:16;;;;;;;27.08;16.05;;;;;;;;;;5046398;28;20087;-71
2022/01/07 09:27:42;;;;;;;30.95;16.42;;;;;;;;;;5051161;28;20033;-73
2022/01/07 09:30:10;;;;;;;27.92;15.13;;;;;;;;;;5032063;28;20055;-71
2022/01/07 09:32:37;;;;;;;19.15;10.77;;;;;;;;;;5035563;28;20400;-70
2022/01/07 09:35:03;;;;;;;20.38;10.98;;;;;;;;;;5039876;28;20112;-71
2022/01/07 09:37:29;;;;;;;18.73;11.30;;;;;;;;;;5035092;28;20029;-72
2022/01/07 09:39:55;;;;;;;18.63;11.13;;;;;;;;;;5038618;28;20499;-71
2022/01/07 09:42:21;;;;;;;21.17;10.70;;;;;;;;;;5054807;28;20108;-70
2022/01/07 09:44:48;;;;;;;16.58;8.52;;;;;;;;;;5054832;28;20071;-69
2022/01/07 09:47:14;;;;;;;13.90;9.00;;;;;;;;;;5053639;28;20025;-68
2022/01/07 09:49:41;;;;;;;14.75;9.70;;;;;;;;;;5054822;28;20052;-67
2022/01/07 09:52:07;;;;;;;14.07;8.93;;;;;;;;;;5051779;28;20440;-69
2022/01/07 09:54:36;;;;;;;16.85;9.40;;;;;;;;;;5036401;28;20097;-68
2022/01/07 09:57:03;;;;;;;17.75;10.65;;;;;;;;;;5034612;28;20032;-69
2022/01/07 09:59:28;;;;;;;18.27;11.07;;;;;;;;;;5044083;28;20040;-69
2022/01/07 10:02:02;;;;;;;29.55;14.57;;;;;;;;;;5054434;28;20029;-71
2022/01/07 10:04:39;;;;;;;19.73;11.35;;;;;;;;;;5054777;28;20476;-70
2022/01/07 10:07:21;;;;;;;28.10;12.13;;;;;;;;;;5054602;28;20256;-67
2022/01/07 10:10:07;;;;;;;20.40;11.77;;;;;;;;;;5054873;28;20422;-68
2022/01/07 10:13:06;;;;;;;16.15;10.43;;;;;;;;;;5054586;28;20281;-70
2022/01/07 10:15:34;;;;;;;16.85;10.55;;;;;;;;;;5055023;28;20387;-68
2022/01/07 10:18:03;;;;;;;18.40;10.68;;;;;;;;;;5054581;28;20372;-68
2022/01/07 10:20:40;;;;;;;18.67;10.48;;;;;;;;;;5054283;28;20029;-66
2022/01/07 10:23:23;;;;;;;16.25;10.50;;;;;;;;;;5054646;28;20555;-69
2022/01/07 10:25:54;;;;;;;18.70;10.83;;;;;;;;;;5044081;28;20084;-71
2022/01/07 10:28:21;;;;;;;16.65;10.40;;;;;;;;;;5034560;28;20037;-72
2022/01/07 10:30:54;;;;;;;16.80;10.40;;;;;;;;;;5033957;28;20053;-73
2022/01/07 10:33:21;;;;;;;18.65;11.13;;;;;;;;;;5046037;28;20483;-73
2022/01/07 10:35:51;;;;;;;17.02;10.93;;;;;;;;;;5054300;28;20057;-71
2022/01/07 10:38:27;;;;;;;22.55;12.65;;;;;;;;;;5052633;28;20111;-70
2022/01/07 10:40:59;;;;;;;18.60;11.98;;;;;;;;;;5054307;28;20396;-72
2022/01/07 10:43:35;;;;;;;17.98;12.43;;;;;;;;;;5053076;28;20045;-69
2022/01/07 10:46:19;;;;;;;21.80;13.55;;;;;;;;;;5052908;28;20047;-69
2022/01/07 10:48:53;;;;;;;18.02;11.45;;;;;;;;;;5054069;28;20032;-69
2022/01/07 10:51:31;;;;;;;21.83;12.95;;;;;;;;;;5052647;28;20032;-67
2022/01/07 10:54:05;;;;;;;28.00;12.52;;;;;;;;;;5040031;28;20539;-67
2022/01/07 10:56:36;;;;;;;18.20;12.02;;;;;;;;;;5053776;28;20041;-68
2022/01/07 10:59:13;;;;;;;19.88;11.73;;;;;;;;;;5053942;28;20032;-68
2022/01/07 11:01:39;;;;;;;18.83;11.63;;;;;;;;;;5043281;28;20381;-68
2022/01/07 11:04:11;;;;;;;19.00;12.73;;;;;;;;;;5036164;28;20025;-68
2022/01/07 11:06:38;;;;;;;22.45;12.30;;;;;;;;;;5033949;28;20029;-68
2022/01/07 11:09:09;;;;;;;26.13;13.82;;;;;;;;;;5039535;28;20367;-69
2022/01/07 11:11:44;;;;;;;17.75;12.45;;;;;;;;;;5033785;28;20041;-69
2022/01/07 11:14:12;;;;;;;18.30;11.63;;;;;;;;;;5033716;28;20473;-77
2022/01/07 11:16:39;;;;;;;19.48;11.35;;;;;;;;;;5033400;28;20021;-69
2022/01/07 11:19:07;;;;;;;17.15;11.63;;;;;;;;;;5036415;28;20504;-70
2022/01/07 11:21:34;;;;;;;20.98;12.60;;;;;;;;;;5033490;28;20100;-71
2022/01/07 11:24:38;;;;;;;22.90;12.40;;;;;;;;;;5033545;28;20577;-70
2022/01/07 11:27:27;;;;;;;34.05;15.55;;;;;;;;;;5032017;28;20036;-69
2022/01/07 11:30:02;;;;;;;28.13;15.00;;;;;;;;;;5032519;28;20064;-72
2022/01/07 11:32:29;;;;;;;15.75;10.73;;;;;;;;;;5033242;28;20037;-73
2022/01/07 11:34:57;;;;;;;24.80;12.02;;;;;;;;;;5032024;28;20040;-71
2022/01/07 11:37:36;;;;;;;19.38;12.00;;;;;;;;;;5032808;28;20037;-72
2022/01/07 11:40:03;;;;;;;19.90;12.65;;;;;;;;;;5033432;28;20480;-70
2022/01/07 11:42:40;;;;;;;18.75;11.73;;;;;;;;;;5043012;28;20029;-74
2022/01/07 11:45:29;;;;;;;25.73;11.98;;;;;;;;;;5041454;28;20041;-77
2022/01/07 11:47:57;;;;;;;22.80;12.13;;;;;;;;;;5033160;28;20132;-68
2022/01/07 11:50:23;;;;;;;29.23;14.95;;;;;;;;;;5032824;28;20358;-74
2022/01/07 11:53:04;;;;;;;25.20;13.18;;;;;;;;;;5032578;28;20029;-71
2022/01/07 11:55:37;;;;;;;24.98;13.93;;;;;;;;;;5032654;28;20146;-72
2022/01/07 11:58:08;;;;;;;23.25;13.25;;;;;;;;;;5032620;28;20491;-72
2022/01/07 12:00:56;;;;;;;19.80;12.27;;;;;;;;;;5032910;28;20041;-69
2022/01/07 12:03:42;;;;;;;26.90;12.75;;;;;;;;;;5033042;28;20056;-69
2022/01/07 12:06:17;;;;;;;36.17;14.27;;;;;;;;;;5032238;28;20038;-67
2022/01/07 12:09:19;;;;;;;34.70;17.10;;;;;;;;;;5032892;28;20087;-67
2022/01/07 12:12:02;;;;;;;26.88;15.75;;;;;;;;;;5032808;28;20124;-67
2022/01/07 12:14:33;;;;;;;26.08;16.23;;;;;;;;;;5032803;28;20414;-67
2022/01/07 12:17:01;;;;;;;32.88;16.02;;;;;;;;;;5032439;28;20095;-65
2022/01/07 12:19:36;;;;;;;27.80;15.30;;;;;;;;;;5032236;28;20033;-68
2022/01/07 12:22:07;;;;;;;24.63;14.63;;;;;;;;;;5032926;28;20042;-66
2022/01/07 12:24:33;;;;;;;25.98;15.10;;;;;;;;;;5032785;28;20107;-69
2022/01/07 12:27:07;;;;;;;26.65;15.57;;;;;;;;;;5032527;28;20022;-67
2022/01/07 12:29:41;;;;;;;30.02;15.75;;;;;;;;;;5032128;28;20048;-69
2022/01/07 12:32:09;;;;;;;29.50;16.13;;;;;;;;;;5031398;28;20076;-69
2022/01/07 12:34:40;;;;;;;25.45;14.88;;;;;;;;;;5030609;28;20041;-69
2022/01/07 12:37:08;;;;;;;26.17;14.88;;;;;;;;;;5031341;28;20314;-68
2022/01/07 12:39:37;;;;;;;38.58;20.10;;;;;;;;;;5032496;28;20163;-68
2022/01/07 12:42:04;;;;;;;30.15;16.33;;;;;;;;;;5032673;28;20112;-68
2022/01/07 12:44:36;;;;;;;32.67;16.15;;;;;;;;;;5032356;28;20064;-68
2022/01/07 12:47:03;;;;;;;30.98;15.93;;;;;;;;;;5032341;28;20033;-67
2022/01/07 12:49:43;;;;;;;36.53;15.85;;;;;;;;;;5032028;28;20029;-68
2022/01/07 12:52:42;;;;;;;31.92;15.43;;;;;;;;;;5032616;28;20037;-68
2022/01/07 12:55:08;;;;;;;31.13;16.15;;;;;;;;;;5032434;28;20029;-69
2022/01/07 12:57:46;;;;;;;31.38;17.05;;;;;;;;;;5032485;28;20467;-72
2022/01/07 13:00:18;;;;;;;34.42;17.73;;;;;;;;;;5032351;28;20060;-68
2022/01/07 13:02:48;;;;;;;29.92;17.85;;;;;;;;;;5030677;28;20041;-68
2022/01/07 13:05:37;;;;;;;30.17;17.50;;;;;;;;;;5031841;28;20068;-69
2022/01/07 13:08:16;;;;;;;28.77;17.13;;;;;;;;;;5031568;28;20493;-67
2022/01/07 13:10:48;;;;;;;28.02;18.75;;;;;;;;;;5031619;28;20041;-72
2022/01/07 13:13:27;;;;;;;31.77;20.13;;;;;;;;;;5032044;28;20037;-65
2022/01/07 13:15:56;;;;;;;35.65;21.08;;;;;;;;;;5032123;28;20041;-69
2022/01/07 13:18:30;;;;;;;32.53;20.67;;;;;;;;;;5032122;28;20101;-67
2022/01/07 13:21:05;;;;;;;35.45;22.35;;;;;;;;;;5032234;28;20493;-73
2022/01/07 13:23:39;;;;;;;27.67;19.48;;;;;;;;;;5037118;28;20057;-68
2022/01/07 13:26:06;;;;;;;27.20;15.48;;;;;;;;;;5051257;28;20115;-70
2022/01/07 13:28:40;;;;;;;24.48;15.13;;;;;;;;;;5052069;28;20353;-68
2022/01/07 13:31:08;;;;;;;19.77;9.68;;;;;;;;;;5050342;28;20041;-71
2022/01/07 13:33:35;;;;;;;21.15;10.38;;;;;;;;;;5051959;28;20041;-68
2022/01/07 13:36:05;;;;;;;17.70;9.55;;;;;;;;;;5051471;28;20033;-71
2022/01/07 13:38:32;;;;;;;18.05;10.00;;;;;;;;;;5051391;28;20025;-69
2022/01/07 13:41:15;;;;;;;16.70;9.80;;;;;;;;;;5051797;28;20033;-72
2022/01/07 13:43:43;;;;;;;18.00;10.00;;;;;;;;;;5051647;28;20457;-73
2022/01/07 13:46:23;;;;;;;20.13;11.00;;;;;;;;;;5051753;28;20037;-68
2022/01/07 13:49:07;;;;;;;23.60;11.15;;;;;;;;;;5051912;28;20483;-72
2022/01/07 13:51:35;;;;;;;15.27;8.40;;;;;;;;;;5051247;28;20032;-68
2022/01/07 13:54:34;;;;;;;16.75;10.40;;;;;;;;;;5049959;28;20029;-68
2022/01/07 13:57:07;;;;;;;17.95;8.38;;;;;;;;;;5055851;28;20106;-69
2022/01/07 13:59:50;;;;;;;19.55;9.00;;;;;;;;;;5070970;28;20153;-67
2022/01/07 14:02:24;;;;;;;16.15;8.15;;;;;;;;;;5071373;28;20036;-68
2022/01/07 14:04:58;;;;;;;15.85;9.18;;;;;;;;;;5071382;28;20037;-68
2022/01/07 14:07:28;;;;;;;14.18;8.32;;;;;;;;;;5071412;28;20047;-68
2022/01/07 14:10:03;;;;;;;14.88;8.27;;;;;;;;;;5071731;28;20092;-69
2022/01/07 14:12:29;;;;;;;13.65;8.80;;;;;;;;;;5071172;28;20506;-66
2022/01/07 14:15:09;;;;;;;14.27;8.80;;;;;;;;;;5070946;28;20024;-70
2022/01/07 14:17:37;;;;;;;22.90;10.77;;;;;;;;;;5073921;28;20459;-69
2022/01/07 14:20:04;;;;;;;18.50;9.98;;;;;;;;;;5075170;28;20112;-68
2022/01/07 14:22:33;;;;;;;21.10;10.65;;;;;;;;;;5074898;28;20390;-67
2022/01/07 14:24:59;;;;;;;14.38;9.80;;;;;;;;;;5073228;28;20112;-70
2022/01/07 14:27:31;;;;;;;19.52;10.25;;;;;;;;;;5074932;28;20128;-68
2022/01/07 14:29:58;;;;;;;18.77;10.73;;;;;;;;;;5074389;28;20041;-70
2022/01/07 14:32:25;;;;;;;19.75;8.77;;;;;;;;;;5074941;28;20048;-69